»·PEaware :: N121CM KSNA-KPHX

N121CM :: KSNA-KPHX

FLIGHT INFORMATION

Flight Status: Arrived
Operator: Privately registered:
United States
More flights under this callsign
Pilot: Mike T. (28250)
Aircraft: CESSNA 550 CITATION 2/S2/BRAVO
(C550)
More flights by this aircraft type
Origin: KSNA John Wayne-Orange Co
United States
Destination: KPHX Phoenix Sky Harbor Intl
United States
More flights between these airports :: More routes between these airports
Route: +PIGGN2 CNERY BLH HYDRR1
File this flight plan on PilotEdge
Remarks:
Altitude:
(Current/Filed)
33,000ft
Speed:
(Current/Filed)
375kts
Departed: 18-Nov-20 05:12 PM
Arrived: 18-Nov-20 06:14 PM
Distance/Time
Traveled:
293nm/1:02
Distance/Time
To Go:
Arrived

Flight Plot

Page will automatically refresh every two minutes.

Flight plan parsing failed; only flown route is shown


Map Options




Map Legend


Flown Route
Filed Route
Departure Airport
Arrival Airport
Navaid (VOR, NDB)
Fix

Horizontal Profiles

Position Reports

Time Latitude Longitude Heading Altitude Ground
Speed
18-Nov-20 16:54 33.671750 -117.873921 28 61ft 0kts
18-Nov-20 16:55 33.671750 -117.873921 28 61ft 0kts
18-Nov-20 16:56 33.671750 -117.873921 28 61ft 0kts
18-Nov-20 16:57 33.671750 -117.873921 28 61ft 0kts
18-Nov-20 16:58 33.671750 -117.873921 28 61ft 0kts
18-Nov-20 16:59 33.671750 -117.873921 28 61ft 0kts
18-Nov-20 17:00 33.671750 -117.873921 28 61ft 0kts
18-Nov-20 17:01 33.671750 -117.873921 28 61ft 0kts
18-Nov-20 17:02 33.671750 -117.873921 28 61ft 0kts
18-Nov-20 17:03 33.671750 -117.873921 28 61ft 0kts
18-Nov-20 17:04 33.671750 -117.873921 28 61ft 0kts
18-Nov-20 17:05 33.671750 -117.873921 28 61ft 0kts
18-Nov-20 17:06 33.671879 -117.872794 50 61ft 11kts
18-Nov-20 17:07 33.675482 -117.870462 28 61ft 11kts
18-Nov-20 17:08 33.677061 -117.869445 27 61ft 9kts
18-Nov-20 17:09 33.680523 -117.867447 27 61ft 16kts
18-Nov-20 17:10 33.681228 -117.865319 208 61ft 8kts
18-Nov-20 17:11 33.657627 -117.881575 214 1260ft 136kts
18-Nov-20 17:12 33.621583 -117.892192 186 3741ft 139kts
18-Nov-20 17:13 33.577561 -117.898171 178 5715ft 192kts
18-Nov-20 17:14 33.529222 -117.873166 151 8495ft 193kts
18-Nov-20 17:15 33.493776 -117.825182 116 10749ft 213kts
18-Nov-20 17:16 33.476523 -117.754520 81 12735ft 230kts
18-Nov-20 17:17 33.489579 -117.679865 55 14776ft 232kts
18-Nov-20 17:18 33.522194 -117.611625 54 16641ft 242kts
18-Nov-20 17:19 33.555807 -117.539951 65 18363ft 255kts
18-Nov-20 17:20 33.560650 -117.452752 85 19980ft 267kts
18-Nov-20 17:21 33.563945 -117.362673 85 21484ft 274kts
18-Nov-20 17:22 33.567301 -117.271580 85 23090ft 268kts
18-Nov-20 17:23 33.570606 -117.180935 85 24308ft 276kts
18-Nov-20 17:24 33.573907 -117.088096 85 25494ft 281kts
18-Nov-20 17:25 33.577198 -116.993538 85 26548ft 287kts
18-Nov-20 17:26 33.580475 -116.897057 85 27658ft 286kts
18-Nov-20 17:27 33.583631 -116.802290 85 28636ft 288kts
18-Nov-20 17:28 33.586764 -116.705887 85 29560ft 292kts
18-Nov-20 17:29 33.589883 -116.607493 85 30387ft 297kts
18-Nov-20 17:30 33.592963 -116.507765 84 31163ft 301kts
18-Nov-20 17:31 33.596000 -116.406724 84 31907ft 305kts
18-Nov-20 17:32 33.598993 -116.304552 85 32530ft 310kts
18-Nov-20 17:33 33.601933 -116.200956 85 33143ft 313kts
18-Nov-20 17:34 33.604951 -116.092493 85 33176ft 336kts
18-Nov-20 17:35 33.608023 -115.977043 85 33181ft 355kts
18-Nov-20 17:36 33.611122 -115.856088 85 33184ft 370kts
18-Nov-20 17:37 33.614203 -115.731117 85 33186ft 380kts
18-Nov-20 17:38 33.617221 -115.603411 85 33186ft 387kts
18-Nov-20 17:39 33.615902 -115.473327 90 33187ft 393kts
18-Nov-20 17:40 33.612062 -115.342767 90 33185ft 396kts
18-Nov-20 17:41 33.608600 -115.210690 90 33180ft 397kts
18-Nov-20 17:42 33.605079 -115.078164 90 33166ft 398kts
18-Nov-20 17:43 33.601402 -114.945174 90 33147ft 400kts
18-Nov-20 17:44 33.597578 -114.812044 89 33147ft 401kts
18-Nov-20 17:45 33.579372 -114.678673 101 32432ft 424kts
18-Nov-20 17:46 33.552587 -114.537165 102 30861ft 434kts
18-Nov-20 17:47 33.525353 -114.397949 102 28718ft 426kts
18-Nov-20 17:48 33.498514 -114.261761 103 26630ft 423kts
18-Nov-20 17:49 33.471575 -114.125910 103 25183ft 412kts
18-Nov-20 17:50 33.445856 -113.997257 102 24465ft 395kts
18-Nov-20 17:51 33.420717 -113.872172 102 24137ft 372kts
18-Nov-20 17:52 33.396161 -113.750186 102 23020ft 381kts
18-Nov-20 17:53 33.371102 -113.626476 102 22196ft 385kts
18-Nov-20 17:54 33.346000 -113.503281 102 22141ft 378kts
18-Nov-20 17:55 33.323119 -113.380383 99 21798ft 385kts
18-Nov-20 17:56 33.301443 -113.253342 100 20907ft 397kts
18-Nov-20 17:57 33.281760 -113.122648 98 20002ft 398kts
18-Nov-20 17:58 33.275994 -112.993547 85 18902ft 389kts
18-Nov-20 17:59 33.279429 -112.863260 85 17155ft 374kts
18-Nov-20 18:00 33.303305 -112.758997 59 17051ft 297kts
18-Nov-20 18:01 33.337817 -112.668277 60 14416ft 298kts
18-Nov-20 18:02 33.371506 -112.580419 61 11530ft 285kts
18-Nov-20 18:03 33.403004 -112.497669 62 9135ft 241kts
18-Nov-20 18:04 33.424313 -112.436881 63 8652ft 183kts
18-Nov-20 18:05 33.429026 -112.371674 85 6761ft 207kts
18-Nov-20 18:06 33.429692 -112.305340 86 5369ft 196kts
18-Nov-20 18:07 33.430070 -112.244903 87 4358ft 181kts
18-Nov-20 18:08 33.429491 -112.190010 91 3875ft 158kts
18-Nov-20 18:09 33.428873 -112.138247 88 3011ft 158kts
18-Nov-20 18:10 33.428715 -112.087579 89 2167ft 139kts
18-Nov-20 18:11 33.428801 -112.046396 89 1489ft 107kts
18-Nov-20 18:12 33.428884 -112.014443 93 1137ft 59kts
18-Nov-20 18:13 33.427970 -112.010468 162 1137ft 8kts
18-Nov-20 18:14 33.427743 -112.013582 271 1137ft 4kts
18-Nov-20 18:15 33.427759 -112.017937 270 1137ft 21kts
18-Nov-20 18:16 33.426628 -112.020781 175 1137ft 3kts

Navigation Log

Ident Type
Flight plan parsing failed, navigation log unavailable